CA Drinking Water Watch

MOUNTAIN HIGH EAST SKI AREA (1900581)

All Sampling Results From To

WELL 02 (CA1900581_002_002)

Click to hide / show columns: Analyte Number | Analyte Name | Sampling Date | Detected Level | Less Than | RL | Counting Error (+/-) | MCL | DLR | Unit | Lab Sample ID | Lab | ELAP | Method |

Some columns are not shown for clarity. Please use the above links to unhide them.

Tips on Using Table

Analyte Number Analyte Name Sampling Date Results Counting Error (+/-) MCL DLR Unit Lab Sample ID Lab ELAP Method
Detected Level Less Than RL
Analyte Number Analyte Name Sampling Date Detected Level Less Than RL Counting Error (+/-) MCL DLR Unit Lab Sample ID Lab ELAP Method
1040 NITRATE 08-07-2023 < 0.4 10 .4 MG/L 23H0743-02 CLINICAL LABORATORY OF SAN BERNARDINO 1088 EPA 300.0
1041 NITRITE 08-25-2022 < 0.4 1 .4 MG/L 22H2618-02 CLINICAL LABORATORY OF SAN BERNARDINO 1088 EPA 300.0
1040 NITRATE 08-25-2022 0.63 0.4 10 .4 MG/L 22H2618-02 CLINICAL LABORATORY OF SAN BERNARDINO 1088 EPA 300.0
1040 NITRATE 09-07-2021 0.65 0.4 10 .4 MG/L 21I0426-02 CLINICAL LABORATORY OF SAN BERNARDINO 1088 EPA 300.0
1041 NITRITE 08-24-2020 < 0.4 1 .4 MG/L 22930022008240915N CLINICAL LABORATORY OF SAN BERNARDINO 1088
1040 NITRATE 08-24-2020 0.4300000 0.4 10 .4 MG/L 22930022008240915N CLINICAL LABORATORY OF SAN BERNARDINO 1088
1040 NITRATE 07-31-2018 0.6400000 0.4 10 .4 MG/L 22930021807310910N CLINICAL LABORATORY OF SAN BERNARDINO 1088
1080 CHROMIUM, HEX 12-20-2017 < 1 1 UG/L 22930021712201105I CLINICAL LABORATORY OF SAN BERNARDINO 1088
1040 NITRATE 08-08-2017 1.0000000 0.4 10 .4 MG/L 22930021708081120N CLINICAL LABORATORY OF SAN BERNARDINO 1088
1041 NITRITE 06-24-2015 < 400 1000 400 UG/L 22930021506240910N CLINICAL LABORATORY OF SAN BERNARDINO 1088
C255 NITRATE (AS NO3) 06-24-2015 < 2 45 2 MG/L 22930021506240910N CLINICAL LABORATORY OF SAN BERNARDINO 1088
1080 CHROMIUM, HEX 09-11-2014 < 1 10 1 UG/L 22930021409110950I CLINICAL LABORATORY OF SAN BERNARDINO 1088
2905 FOAMING AGENTS (SURFACTANTS) 07-31-2002 < 500 UG/L 22930020207311600G L.A. CO. AGRICULTURAL COMMISSIONER /W&M 1430
1920 ODOR 07-31-2002 < 1 3 1 TON 22930020207311600G L.A. CO. AGRICULTURAL COMMISSIONER /W&M 1430
1050 SILVER 07-31-2002 < 10 100 10 UG/L 22930020207311600G L.A. CO. AGRICULTURAL COMMISSIONER /W&M 1430
1929 ALKALINITY, CARBONATE 07-31-2002 < MG/L 22930020207311600G L.A. CO. AGRICULTURAL COMMISSIONER /W&M 1430
1095 ZINC 07-31-2002 52.3000000 50 5000 50 UG/L 22930020207311600G L.A. CO. AGRICULTURAL COMMISSIONER /W&M 1430
0100 TURBIDITY 07-31-2002 0.4100000 0.1 5 .1 NTU 22930020207311600G L.A. CO. AGRICULTURAL COMMISSIONER /W&M 1430
1925 PH 07-31-2002 7.7700000 pH 22930020207311600G L.A. CO. AGRICULTURAL COMMISSIONER /W&M 1430
1028 IRON 07-31-2002 < 100 300 100 UG/L 22930020207311600G L.A. CO. AGRICULTURAL COMMISSIONER /W&M 1430
1032 MANGANESE 07-31-2002 < 20 50 20 UG/L 22930020207311600G L.A. CO. AGRICULTURAL COMMISSIONER /W&M 1430
1017 CHLORIDE 07-31-2002 17.4000000 500 MG/L 22930020207311600G L.A. CO. AGRICULTURAL COMMISSIONER /W&M 1430
1928 ALKALINITY, BICARBONATE 07-31-2002 338.0000000 MG/L 22930020207311600G L.A. CO. AGRICULTURAL COMMISSIONER /W&M 1430
1930 TDS 07-31-2002 372.0000000 1000 MG/L 22930020207311600G L.A. CO. AGRICULTURAL COMMISSIONER /W&M 1430
1021 HYDROXIDE AS CALCIUM CARBONATE 07-31-2002 < MG/L 22930020207311600G L.A. CO. AGRICULTURAL COMMISSIONER /W&M 1430
1055 SULFATE 07-31-2002 32.5000000 0.5 500 .5 MG/L 22930020207311600G L.A. CO. AGRICULTURAL COMMISSIONER /W&M 1430
1064 CONDUCTIVITY @ 25 C UMHOS/CM 07-31-2002 617.0000000 1600 UMHO/CM 22930020207311600G L.A. CO. AGRICULTURAL COMMISSIONER /W&M 1430
1915 HARDNESS, TOTAL (AS CACO3) 07-31-2002 320.0000000 MG/L 22930020207311600G L.A. CO. AGRICULTURAL COMMISSIONER /W&M 1430
1031 MAGNESIUM 07-31-2002 24.3000000 MG/L 22930020207311600G L.A. CO. AGRICULTURAL COMMISSIONER /W&M 1430
1919 CALCIUM 07-31-2002 88.2000000 MG/L 22930020207311600G L.A. CO. AGRICULTURAL COMMISSIONER /W&M 1430
1052 SODIUM 07-31-2002 14.9000000 MG/L 22930020207311600G L.A. CO. AGRICULTURAL COMMISSIONER /W&M 1430
1905 COLOR 07-31-2002 < 15 UNITS 22930020207311600G L.A. CO. AGRICULTURAL COMMISSIONER /W&M 1430
1927 ALKALINITY, TOTAL 07-31-2002 277.0000000 MG/L 22930020207311600G L.A. CO. AGRICULTURAL COMMISSIONER /W&M 1430
1010 BARIUM 07-31-2002 < 100 1000 100 UG/L 22930020207311600I L.A. CO. AGRICULTURAL COMMISSIONER /W&M 1430
1074 ANTIMONY, TOTAL 07-31-2002 < 6 6 6 UG/L 22930020207311600I L.A. CO. AGRICULTURAL COMMISSIONER /W&M 1430
1045 SELENIUM 07-31-2002 < 5 50 5 UG/L 22930020207311600I L.A. CO. AGRICULTURAL COMMISSIONER /W&M 1430
1002 ALUMINUM 07-31-2002 < 50 1000 50 UG/L 22930020207311600I L.A. CO. AGRICULTURAL COMMISSIONER /W&M 1430
1036 NICKEL 07-31-2002 < 10 100 10 UG/L 22930020207311600I L.A. CO. AGRICULTURAL COMMISSIONER /W&M 1430
1025 FLUORIDE 07-31-2002 0.2200000 0.1 1.7 .1 MG/L 22930020207311600I L.A. CO. AGRICULTURAL COMMISSIONER /W&M 1430
1015 CADMIUM 07-31-2002 < 1 5 1 UG/L 22930020207311600I L.A. CO. AGRICULTURAL COMMISSIONER /W&M 1430
1020 CHROMIUM 07-31-2002 < 10 50 10 UG/L 22930020207311600I L.A. CO. AGRICULTURAL COMMISSIONER /W&M 1430
1035 MERCURY 07-31-2002 < 1 2 1 UG/L 22930020207311600I L.A. CO. AGRICULTURAL COMMISSIONER /W&M 1430
1005 ARSENIC 07-31-2002 < 2 50 2 UG/L 22930020207311600I L.A. CO. AGRICULTURAL COMMISSIONER /W&M 1430
1030 LEAD 07-31-2002 < 5 5 UG/L 22930020207311600L L.A. CO. AGRICULTURAL COMMISSIONER /W&M 1430
1022 COPPER, FREE 07-31-2002 < 50 1000 50 UG/L 22930020207311600L L.A. CO. AGRICULTURAL COMMISSIONER /W&M 1430
1079 BORON, TOTAL 07-31-2002 198.0000000 100 100 UG/L 22930020207311600O L.A. CO. AGRICULTURAL COMMISSIONER /W&M 1430
2727 THIOBENCARB (BOLERO) 07-31-2002 < 1 70 1 UG/L 22930020207311600S L.A. CO. AGRICULTURAL COMMISSIONER /W&M 1430
C164 LANGELIER INDEX AT SOURCE TEMP. 07-31-2002 0.6990000 LANG 22930020207311600W L.A. CO. AGRICULTURAL COMMISSIONER /W&M 1430

RL – Reporting Level means the level to which the laboratory reported the presence of an analyte. For radionuclides, Reporting Level is the MDA95.

DLR – Detection Limit for purposes of Reporting (DLR) means the designated minimum level at or above which any analytical finding of a contaminant in drinking water resulting from monitoring required under Chapter 15 of Title 22 shall be reported to the State Board (California Code of Regulations Section § 64400.34)

For addtional definitions, please refer to our data dictionary.